createdAt,value
2022-12-07T00:01:41.805Z,29.63
2022-12-07T00:04:11.467Z,25.30
2022-12-07T00:06:43.717Z,26.20
2022-12-07T00:09:16.669Z,26.02
2022-12-07T00:11:43.627Z,20.80
2022-12-07T00:14:16.147Z,17.23
2022-12-07T00:16:43.932Z,29.90
2022-12-07T00:19:12.150Z,18.30
2022-12-07T00:21:39.241Z,22.87
2022-12-07T00:24:06.555Z,17.95
2022-12-07T00:26:38.770Z,15.37
2022-12-07T00:29:10.592Z,19.83
2022-12-07T00:31:40.019Z,16.77
2022-12-07T00:34:08.753Z,14.53
2022-12-07T00:36:35.359Z,16.47
2022-12-07T00:39:03.273Z,17.07
2022-12-07T00:41:31.181Z,25.23
2022-12-07T00:43:58.519Z,18.33
2022-12-07T00:46:25.887Z,14.70
2022-12-07T00:48:53.564Z,17.27
2022-12-07T00:51:23.059Z,19.60
2022-12-07T00:53:50.013Z,16.30
2022-12-07T00:56:28.339Z,19.20
2022-12-07T00:59:02.767Z,19.10
2022-12-07T01:01:35.965Z,13.40
2022-12-07T01:04:02.746Z,11.50
2022-12-07T01:06:30.432Z,16.47
2022-12-07T01:08:57.562Z,16.83
2022-12-07T01:11:27.278Z,15.37
2022-12-07T01:13:55.730Z,16.63
2022-12-07T01:16:24.172Z,13.23
2022-12-07T01:18:53.180Z,15.30
2022-12-07T01:21:29.293Z,16.93
2022-12-07T01:23:58.215Z,15.23
2022-12-07T01:26:26.410Z,14.43
2022-12-07T01:28:56.124Z,14.27
2022-12-07T01:31:25.223Z,15.03
2022-12-07T01:33:54.470Z,12.30
2022-12-07T01:36:27.692Z,15.53
2022-12-07T01:39:00.047Z,12.47
2022-12-07T01:41:29.684Z,14.63
2022-12-07T01:44:21.686Z,13.07
2022-12-07T01:46:49.628Z,15.97
2022-12-07T01:49:44.951Z,12.20
2022-12-07T01:52:32.450Z,16.30
2022-12-07T01:55:03.343Z,12.37
2022-12-07T01:57:34.126Z,15.80
2022-12-07T02:00:01.726Z,9.40
2022-12-07T02:02:34.223Z,10.50
2022-12-07T02:05:03.088Z,12.30
2022-12-07T02:07:30.802Z,12.90
2022-12-07T02:09:57.512Z,12.45
2022-12-07T02:12:25.546Z,12.03
2022-12-07T02:14:52.861Z,13.00
2022-12-07T02:17:31.114Z,14.43
2022-12-07T02:20:19.010Z,14.05
2022-12-07T02:23:33.922Z,12.80
2022-12-07T02:26:47.055Z,12.82
2022-12-07T02:29:19.889Z,10.52
2022-12-07T02:32:16.885Z,15.20
2022-12-07T02:34:51.863Z,11.63
2022-12-07T02:37:41.044Z,11.07
2022-12-07T02:40:14.899Z,14.65
2022-12-07T02:42:47.233Z,10.73
2022-12-07T02:45:16.636Z,15.90
2022-12-07T02:47:44.897Z,26.30
2022-12-07T02:50:11.986Z,16.83
2022-12-07T02:52:38.673Z,16.43
2022-12-07T02:55:06.029Z,14.47
2022-12-07T02:57:49.602Z,13.10
2022-12-07T03:00:18.716Z,14.17
2022-12-07T03:02:55.097Z,17.33
2022-12-07T03:05:27.667Z,11.83
2022-12-07T03:08:23.657Z,11.90
2022-12-07T03:10:57.748Z,15.82
2022-12-07T03:13:30.757Z,12.00
2022-12-07T03:16:06.693Z,13.47
2022-12-07T03:18:40.824Z,17.17
2022-12-07T03:21:15.073Z,12.18
2022-12-07T03:23:45.231Z,12.38
2022-12-07T03:26:15.931Z,15.83
2022-12-07T03:28:48.449Z,11.55
2022-12-07T03:31:32.017Z,13.02
2022-12-07T03:34:12.141Z,11.07
2022-12-07T03:36:55.442Z,12.77
2022-12-07T03:39:35.464Z,13.93
2022-12-07T03:42:05.260Z,10.30
2022-12-07T03:44:33.146Z,13.13
2022-12-07T03:47:08.127Z,13.57
2022-12-07T03:49:37.621Z,14.90
2022-12-07T03:52:18.185Z,13.60
2022-12-07T03:55:06.326Z,16.80
2022-12-07T03:57:35.448Z,12.10
2022-12-07T04:00:05.303Z,10.07
2022-12-07T04:02:33.108Z,12.73
2022-12-07T04:04:59.883Z,17.77
2022-12-07T04:07:26.528Z,10.93
2022-12-07T04:09:55.785Z,29.83
2022-12-07T04:12:23.275Z,13.93
2022-12-07T04:14:49.833Z,17.83
2022-12-07T04:17:16.595Z,17.63
2022-12-07T04:19:43.199Z,14.97
2022-12-07T04:22:09.984Z,11.07
2022-12-07T04:24:36.606Z,16.27
2022-12-07T04:27:03.979Z,13.68
2022-12-07T04:29:30.585Z,15.13
2022-12-07T04:31:57.165Z,16.30
2022-12-07T04:34:23.769Z,15.00
2022-12-07T04:36:50.502Z,13.23
2022-12-07T04:39:31.158Z,21.73
2022-12-07T04:41:58.292Z,16.58
2022-12-07T04:44:25.966Z,14.40
2022-12-07T04:46:53.392Z,16.97
2022-12-07T04:49:20.903Z,19.77
2022-12-07T04:51:48.261Z,16.15
2022-12-07T04:54:16.250Z,20.67
2022-12-07T04:56:43.551Z,18.80
2022-12-07T04:59:11.729Z,21.58
2022-12-07T05:01:38.474Z,21.50
2022-12-07T05:04:05.337Z,23.33
2022-12-07T05:06:31.900Z,21.67
2022-12-07T05:08:58.452Z,19.93
2022-12-07T05:11:40.141Z,15.75
2022-12-07T05:14:19.121Z,19.23
2022-12-07T05:16:47.741Z,13.95
2022-12-07T05:19:14.390Z,14.87
2022-12-07T05:21:41.282Z,14.50
2022-12-07T05:24:10.869Z,18.30
2022-12-07T05:26:37.448Z,16.40
2022-12-07T05:29:04.711Z,16.92
2022-12-07T05:31:31.283Z,13.00
2022-12-07T05:33:57.837Z,13.50
2022-12-07T05:36:24.528Z,14.77
2022-12-07T05:38:51.248Z,19.57
2022-12-07T05:41:38.484Z,21.13
2022-12-07T05:44:06.284Z,16.75
2022-12-07T05:46:33.332Z,18.02
2022-12-07T05:48:59.965Z,16.42
2022-12-07T05:51:26.547Z,19.00
2022-12-07T05:53:53.161Z,15.27
2022-12-07T05:56:20.042Z,15.60
2022-12-07T05:59:05.208Z,21.58
2022-12-07T06:01:31.918Z,15.20
2022-12-07T06:03:58.527Z,13.38
2022-12-07T06:06:25.243Z,19.47
2022-12-07T06:08:52.142Z,16.20
2022-12-07T06:11:37.258Z,19.23
2022-12-07T06:14:03.846Z,18.80
2022-12-07T06:16:30.454Z,17.63
2022-12-07T06:18:57.276Z,15.93
2022-12-07T06:21:23.974Z,19.27
2022-12-07T06:23:50.531Z,19.30
2022-12-07T06:26:17.115Z,18.52
2022-12-07T06:28:43.695Z,18.92
2022-12-07T06:31:13.776Z,17.02
2022-12-07T06:33:41.684Z,20.38
2022-12-07T06:36:08.940Z,20.80
2022-12-07T06:38:35.733Z,23.45
2022-12-07T06:41:02.283Z,18.73
2022-12-07T06:43:29.024Z,17.45
2022-12-07T06:45:55.645Z,19.95
2022-12-07T06:48:22.276Z,20.02
2022-12-07T06:50:54.307Z,20.95
2022-12-07T06:53:21.598Z,17.30
2022-12-07T06:55:48.172Z,20.67
2022-12-07T06:58:14.852Z,24.43
2022-12-07T07:00:41.662Z,21.77
2022-12-07T07:03:08.242Z,30.42
2022-12-07T07:05:34.901Z,17.27
2022-12-07T07:10:48.354Z,15.63
2022-12-07T07:13:14.945Z,21.23
2022-12-07T07:15:41.522Z,17.20
2022-12-07T07:18:08.303Z,25.98
2022-12-07T07:20:34.986Z,20.58
2022-12-07T07:23:01.598Z,17.88
2022-12-07T07:25:28.267Z,20.00
2022-12-07T07:27:54.943Z,23.02
2022-12-07T07:30:21.706Z,19.73
2022-12-07T07:32:48.258Z,20.20
2022-12-07T07:35:15.162Z,31.70
2022-12-07T07:37:42.110Z,24.15
2022-12-07T07:40:10.275Z,26.40
2022-12-07T07:42:37.148Z,28.05
2022-12-07T07:45:04.090Z,22.02
2022-12-07T07:47:30.700Z,23.17
2022-12-07T07:49:58.136Z,23.20
2022-12-07T07:52:24.729Z,20.83
2022-12-07T07:54:51.425Z,18.92
2022-12-07T07:57:18.514Z,20.50
2022-12-07T07:59:45.039Z,21.03
2022-12-07T08:02:17.018Z,22.20
2022-12-07T08:04:43.720Z,19.02
2022-12-07T08:07:11.421Z,22.35
2022-12-07T08:09:38.647Z,22.17
2022-12-07T08:12:05.703Z,21.33
2022-12-07T08:14:32.826Z,22.90
2022-12-07T08:16:59.432Z,20.27
2022-12-07T08:19:26.175Z,23.55
2022-12-07T08:21:52.925Z,22.65
2022-12-07T08:24:19.542Z,26.33
2022-12-07T08:26:46.048Z,25.75
2022-12-07T08:29:12.614Z,24.13
2022-12-07T08:31:39.244Z,21.95
2022-12-07T08:34:05.783Z,25.75
2022-12-07T08:36:32.321Z,23.67
2022-12-07T08:39:30.451Z,29.58
2022-12-07T08:41:45.456Z,24.75
2022-12-07T08:44:11.965Z,30.65
2022-12-07T08:46:43.657Z,26.58
2022-12-07T08:49:14.980Z,29.65
2022-12-07T08:51:42.352Z,23.55
2022-12-07T08:54:12.061Z,36.78
2022-12-07T08:56:38.990Z,26.23
2022-12-07T08:59:07.061Z,38.58
2022-12-07T09:01:34.072Z,27.92
2022-12-07T09:04:00.771Z,43.13
2022-12-07T09:06:27.688Z,40.65
2022-12-07T09:08:58.860Z,34.13
2022-12-07T09:13:56.098Z,29.23
2022-12-07T09:16:23.090Z,23.15
2022-12-07T09:18:49.799Z,33.60
2022-12-07T09:21:16.332Z,30.58
2022-12-07T09:23:43.839Z,29.75
2022-12-07T09:26:11.176Z,26.63
2022-12-07T09:28:38.618Z,30.17
2022-12-07T09:34:00.547Z,30.17
2022-12-07T09:36:28.224Z,34.35
2022-12-07T09:38:54.936Z,28.33
2022-12-07T09:41:23.729Z,32.70
2022-12-07T09:43:51.098Z,38.70
2022-12-07T09:46:20.481Z,27.67
2022-12-07T09:48:49.694Z,30.52
2022-12-07T09:51:25.939Z,27.58
2022-12-07T09:53:55.137Z,33.60
2022-12-07T09:56:23.724Z,33.92
2022-12-07T09:58:52.719Z,27.95
2022-12-07T10:01:21.235Z,24.92
2022-12-07T10:03:53.999Z,26.35
2022-12-07T10:06:20.531Z,33.38
2022-12-07T10:08:47.791Z,31.52
2022-12-07T10:11:15.902Z,27.17
2022-12-07T10:13:49.966Z,26.15
2022-12-07T10:16:41.423Z,21.85
2022-12-07T10:22:03.636Z,20.10
2022-12-07T10:24:30.583Z,26.20
2022-12-07T10:26:58.250Z,22.35
2022-12-07T10:29:37.168Z,29.63
2022-12-07T10:32:34.932Z,21.98
2022-12-07T10:35:26.653Z,22.65
2022-12-07T10:37:55.049Z,23.85
2022-12-07T10:40:24.503Z,19.63
2022-12-07T10:43:03.112Z,18.50
2022-12-07T10:45:29.887Z,23.55
2022-12-07T10:48:05.494Z,24.15
2022-12-07T10:50:59.919Z,21.52
2022-12-07T10:53:41.531Z,17.67
2022-12-07T10:56:11.093Z,13.23
2022-12-07T10:59:08.828Z,22.92
2022-12-07T11:01:40.954Z,17.02
2022-12-07T11:04:31.679Z,23.27
2022-12-07T11:07:35.512Z,9.43
2022-12-07T11:10:45.723Z,11.50
2022-12-07T11:13:28.343Z,14.02
2022-12-07T11:16:01.418Z,13.52
2022-12-07T11:18:37.646Z,20.75
2022-12-07T11:21:27.966Z,16.92
2022-12-07T11:24:48.676Z,15.85
2022-12-07T11:27:25.291Z,8.83
2022-12-07T11:30:23.662Z,7.85
2022-12-07T11:33:15.991Z,10.07
2022-12-07T11:36:17.276Z,13.68
2022-12-07T11:39:01.383Z,11.48
2022-12-07T11:41:36.630Z,15.30
2022-12-07T11:44:07.168Z,9.98
2022-12-07T11:47:15.017Z,10.15
2022-12-07T11:50:20.467Z,8.63
2022-12-07T11:52:56.088Z,7.07
2022-12-07T11:55:44.484Z,9.00
2022-12-07T11:58:42.299Z,11.32
2022-12-07T12:01:14.927Z,8.13
2022-12-07T12:03:53.502Z,10.82
2022-12-07T12:06:21.539Z,9.70
2022-12-07T12:15:18.939Z,11.00
2022-12-07T12:17:51.498Z,13.73
2022-12-07T12:20:39.847Z,8.18
2022-12-07T12:23:36.716Z,7.93
2022-12-07T12:26:06.204Z,6.88
2022-12-07T12:28:50.611Z,7.05
2022-12-07T12:31:23.252Z,10.93
2022-12-07T12:33:54.834Z,6.35
2022-12-07T12:36:43.695Z,9.82
2022-12-07T12:39:15.356Z,10.00
2022-12-07T12:41:47.740Z,11.05
2022-12-07T12:44:20.203Z,11.43
2022-12-07T12:46:54.218Z,11.32
2022-12-07T12:49:20.697Z,14.15
2022-12-07T12:51:57.707Z,9.50
2022-12-07T12:54:29.364Z,12.88
2022-12-07T12:57:19.696Z,13.43
2022-12-07T12:59:51.980Z,12.98
2022-12-07T13:02:24.523Z,8.02
2022-12-07T13:05:03.640Z,9.45
2022-12-07T13:07:45.569Z,8.63
2022-12-07T13:10:24.341Z,9.45
2022-12-07T13:13:11.911Z,8.75
2022-12-07T13:15:38.745Z,6.32
2022-12-07T13:18:25.979Z,8.38
2022-12-07T13:21:07.635Z,6.85
2022-12-07T13:23:46.293Z,8.38
2022-12-07T13:26:36.364Z,8.90
2022-12-07T13:29:16.177Z,9.63
2022-12-07T13:31:42.703Z,7.68
2022-12-07T13:34:39.217Z,11.95
2022-12-07T13:37:19.125Z,16.10
2022-12-07T13:39:51.978Z,10.45
2022-12-07T13:42:28.830Z,9.52
2022-12-07T13:44:57.203Z,14.05
2022-12-07T13:47:30.003Z,13.68
2022-12-07T13:49:57.808Z,9.80
2022-12-07T13:52:30.053Z,9.40
2022-12-07T13:54:59.938Z,8.48
2022-12-07T13:57:29.682Z,16.15
2022-12-07T13:59:56.944Z,8.35
2022-12-07T14:02:35.040Z,10.27
2022-12-07T14:05:11.824Z,10.75
2022-12-07T14:07:54.835Z,31.50
2022-12-07T14:10:50.756Z,38.25
2022-12-07T14:13:36.642Z,19.73
2022-12-07T14:16:06.932Z,10.38
2022-12-07T14:18:36.484Z,12.73
2022-12-07T14:21:15.009Z,10.13
2022-12-07T14:23:41.945Z,10.40
2022-12-07T14:26:15.559Z,14.73
2022-12-07T14:28:44.053Z,9.55
2022-12-07T14:31:23.680Z,8.93
2022-12-07T14:33:51.751Z,11.07
2022-12-07T14:36:18.268Z,9.93
2022-12-07T14:38:44.844Z,10.43
2022-12-07T14:41:35.640Z,8.75
2022-12-07T14:44:22.401Z,7.53
2022-12-07T14:46:50.780Z,7.85
2022-12-07T14:49:33.809Z,13.25
2022-12-07T14:54:47.696Z,14.35
2022-12-07T14:57:14.364Z,11.75
2022-12-07T14:59:45.059Z,6.90
2022-12-07T15:02:13.673Z,14.75
2022-12-07T15:04:40.517Z,9.13
2022-12-07T15:07:14.592Z,13.50
2022-12-07T15:09:41.188Z,12.63
2022-12-07T15:12:07.896Z,21.20
2022-12-07T15:14:34.527Z,9.15
2022-12-07T15:17:10.526Z,10.90
2022-12-07T15:19:39.655Z,11.93
2022-12-07T15:22:06.202Z,16.70
2022-12-07T15:24:34.289Z,15.82
2022-12-07T15:27:00.839Z,17.85
2022-12-07T15:29:27.459Z,22.83
2022-12-07T15:31:56.565Z,26.33
2022-12-07T15:34:27.652Z,17.60
2022-12-07T15:36:54.327Z,20.83
2022-12-07T15:39:21.017Z,17.38
2022-12-07T15:41:47.627Z,13.57
2022-12-07T15:44:33.176Z,14.63
2022-12-07T15:47:00.051Z,16.83
2022-12-07T15:49:27.248Z,15.35
2022-12-07T15:51:53.946Z,14.93
2022-12-07T15:54:26.911Z,13.63
2022-12-07T15:56:54.285Z,20.67
2022-12-07T15:59:20.889Z,13.68
2022-12-07T16:01:47.580Z,61.80
2022-12-07T16:04:14.622Z,50.63
2022-12-07T16:06:41.452Z,17.65
2022-12-07T16:09:08.534Z,21.02
2022-12-07T16:11:35.184Z,25.00
2022-12-07T16:14:01.753Z,18.40
2022-12-07T16:16:28.745Z,15.65
2022-12-07T16:18:55.747Z,27.60
2022-12-07T16:21:25.343Z,19.60
2022-12-07T16:23:52.572Z,17.83
2022-12-07T16:26:21.754Z,17.52
2022-12-07T16:28:52.941Z,15.85
2022-12-07T16:33:48.420Z,15.15
2022-12-07T16:36:33.970Z,15.10
2022-12-07T16:39:06.362Z,16.00
2022-12-07T16:41:33.285Z,17.58
2022-12-07T16:44:10.386Z,15.15
2022-12-07T16:46:38.009Z,13.15
2022-12-07T16:49:05.418Z,20.08
2022-12-07T16:51:32.624Z,16.58
2022-12-07T16:53:59.796Z,14.90
2022-12-07T16:56:27.721Z,17.40
2022-12-07T16:58:54.472Z,20.42
2022-12-07T17:01:23.687Z,17.27
2022-12-07T17:03:50.917Z,13.95
2022-12-07T17:06:25.608Z,23.00
2022-12-07T17:08:53.000Z,20.33
2022-12-07T17:11:31.702Z,23.35
2022-12-07T17:14:16.803Z,23.05
2022-12-07T17:16:43.471Z,24.00
2022-12-07T17:19:12.576Z,17.38
2022-12-07T17:21:39.678Z,28.67
2022-12-07T17:24:09.715Z,18.73
2022-12-07T17:26:37.322Z,16.02
2022-12-07T17:29:06.020Z,19.60
2022-12-07T17:31:33.567Z,12.65
2022-12-07T17:34:00.735Z,17.77
2022-12-07T17:36:29.538Z,15.00
2022-12-07T17:38:56.649Z,18.80
2022-12-07T17:41:48.554Z,17.52
2022-12-07T17:44:18.083Z,19.23
2022-12-07T17:46:45.881Z,17.23
2022-12-07T17:49:12.744Z,17.23
2022-12-07T17:51:57.956Z,15.65
2022-12-07T17:54:24.624Z,21.00
2022-12-07T17:56:51.206Z,18.85
2022-12-07T17:59:18.145Z,14.13
2022-12-07T18:01:45.871Z,18.98
2022-12-07T18:04:12.757Z,16.20
2022-12-07T18:06:39.609Z,16.45
2022-12-07T18:09:07.442Z,19.55
2022-12-07T18:11:34.401Z,24.08
2022-12-07T18:14:00.984Z,22.70
2022-12-07T18:16:29.706Z,13.77
2022-12-07T18:19:00.223Z,26.20
2022-12-07T18:21:29.809Z,22.98
2022-12-07T18:23:59.200Z,15.15
2022-12-07T18:26:26.466Z,16.98
2022-12-07T18:28:53.802Z,25.00
2022-12-07T18:31:20.583Z,16.02
2022-12-07T18:33:48.343Z,17.65
2022-12-07T18:36:16.594Z,22.90
2022-12-07T18:38:44.449Z,22.80
2022-12-07T18:41:13.516Z,17.23
2022-12-07T18:43:40.653Z,18.80
2022-12-07T18:46:12.249Z,22.70
2022-12-07T18:48:39.224Z,21.58
2022-12-07T18:51:07.029Z,18.73
2022-12-07T18:53:34.537Z,22.15
2022-12-07T18:56:06.809Z,18.80
2022-12-07T18:58:33.835Z,27.38
2022-12-07T19:01:00.433Z,25.77
2022-12-07T19:03:33.108Z,21.15
2022-12-07T19:06:06.180Z,22.77
2022-12-07T19:08:34.238Z,20.30
2022-12-07T19:11:23.718Z,25.13
2022-12-07T19:13:51.191Z,20.65
2022-12-07T19:16:17.810Z,24.85
2022-12-07T19:18:50.806Z,16.45
2022-12-07T19:21:18.913Z,22.77
2022-12-07T19:23:45.461Z,28.73
2022-12-07T19:26:12.323Z,27.80
2022-12-07T19:28:38.984Z,22.88
2022-12-07T19:31:07.097Z,29.50
2022-12-07T19:33:33.871Z,19.48
2022-12-07T19:36:00.647Z,27.75
2022-12-07T19:38:27.067Z,21.92
2022-12-07T19:40:53.591Z,21.92
2022-12-07T19:43:20.140Z,23.52
2022-12-07T19:45:47.364Z,23.52
2022-12-07T19:48:13.915Z,24.15
2022-12-07T19:50:40.492Z,22.85
2022-12-07T19:53:07.094Z,20.77
2022-12-07T19:55:38.655Z,19.27
2022-12-07T19:58:05.222Z,21.40
2022-12-07T20:00:31.820Z,13.95
2022-12-07T20:02:58.407Z,17.20
2022-12-07T20:05:25.130Z,19.33
2022-12-07T20:07:51.669Z,23.25
2022-12-07T20:10:22.944Z,21.83
2022-12-07T20:13:11.203Z,28.80
2022-12-07T20:15:38.556Z,21.55
2022-12-07T20:18:05.156Z,21.95
2022-12-07T20:20:31.724Z,27.40
2022-12-07T20:22:58.338Z,21.92
2022-12-07T20:25:24.860Z,21.67
2022-12-07T20:27:51.575Z,25.85
2022-12-07T20:30:18.188Z,25.67
2022-12-07T20:32:44.779Z,32.05
2022-12-07T20:35:11.347Z,24.67
2022-12-07T20:37:37.908Z,23.08
2022-12-07T20:40:05.401Z,25.92
2022-12-07T20:42:37.844Z,25.08
2022-12-07T20:45:08.450Z,21.17
2022-12-07T20:47:36.653Z,25.60
2022-12-07T20:50:04.748Z,21.00
2022-12-07T20:52:31.348Z,21.55
2022-12-07T20:54:57.889Z,17.23
2022-12-07T20:57:24.442Z,24.08
2022-12-07T20:59:50.967Z,22.37
2022-12-07T21:02:17.558Z,21.60
2022-12-07T21:04:44.234Z,20.92
2022-12-07T21:07:10.824Z,21.83
2022-12-07T21:09:37.496Z,18.60
2022-12-07T21:12:04.689Z,16.80
2022-12-07T21:14:31.309Z,19.55
2022-12-07T21:16:57.886Z,19.50
2022-12-07T21:19:25.086Z,20.40
2022-12-07T21:21:52.165Z,24.08
2022-12-07T21:24:18.727Z,24.08
2022-12-07T21:26:45.295Z,20.42
2022-12-07T21:29:11.870Z,22.23
2022-12-07T21:31:38.487Z,24.52
2022-12-07T21:34:05.702Z,26.38
2022-12-07T21:36:33.335Z,21.98
2022-12-07T21:39:00.199Z,15.15
2022-12-07T21:41:32.469Z,21.35
2022-12-07T21:43:59.571Z,22.23
2022-12-07T21:46:33.171Z,21.70
2022-12-07T21:49:02.705Z,22.57
2022-12-07T21:51:30.390Z,20.15
2022-12-07T21:53:59.250Z,16.95
2022-12-07T21:56:34.738Z,22.20
2022-12-07T21:59:13.020Z,26.30
2022-12-07T22:01:41.196Z,23.15
2022-12-07T22:04:09.650Z,17.30
2022-12-07T22:06:36.963Z,20.00
2022-12-07T22:09:04.983Z,22.10
2022-12-07T22:11:31.530Z,18.20
2022-12-07T22:14:16.612Z,18.15
2022-12-07T22:16:43.211Z,17.20
2022-12-07T22:19:09.996Z,23.70
2022-12-07T22:21:36.576Z,20.83
2022-12-07T22:24:04.532Z,19.13
2022-12-07T22:26:31.889Z,17.55
2022-12-07T22:28:58.528Z,18.70
2022-12-07T22:31:25.328Z,22.97
2022-12-07T22:33:52.629Z,23.80
2022-12-07T22:36:20.032Z,18.50
2022-12-07T22:38:47.039Z,23.40
2022-12-07T22:41:25.687Z,22.75
2022-12-07T22:43:52.874Z,18.37
2022-12-07T22:46:20.292Z,16.75
2022-12-07T22:48:47.502Z,23.08
2022-12-07T22:51:24.551Z,19.45
2022-12-07T22:53:52.163Z,23.20
2022-12-07T22:56:19.253Z,21.77
2022-12-07T22:58:46.714Z,29.08
2022-12-07T23:01:15.423Z,19.52
2022-12-07T23:03:42.508Z,20.15
2022-12-07T23:06:12.695Z,21.23
2022-12-07T23:08:39.298Z,25.38
2022-12-07T23:11:09.926Z,22.40
2022-12-07T23:13:38.113Z,20.85
2022-12-07T23:16:14.184Z,25.00
2022-12-07T23:18:42.106Z,19.67
2022-12-07T23:21:09.733Z,18.50
2022-12-07T23:23:36.677Z,20.83
2022-12-07T23:26:07.749Z,19.95
2022-12-07T23:28:35.293Z,25.25
2022-12-07T23:31:20.885Z,24.75
2022-12-07T23:33:47.978Z,30.83
2022-12-07T23:36:26.439Z,32.67
2022-12-07T23:38:55.035Z,27.23
2022-12-07T23:41:24.154Z,29.15
2022-12-07T23:43:51.632Z,21.05
2022-12-07T23:46:20.565Z,20.65
2022-12-07T23:48:49.175Z,17.92
2022-12-07T23:51:16.920Z,25.95
2022-12-07T23:53:45.856Z,18.88
2022-12-07T23:56:24.742Z,23.10
2022-12-07T23:58:52.103Z,18.95
